createdAt,value
2023-02-01T00:02:24.893Z,1.89
2023-02-01T00:04:55.016Z,1.92
2023-02-01T00:07:25.301Z,1.85
2023-02-01T00:09:55.641Z,1.86
2023-02-01T00:12:25.896Z,1.85
2023-02-01T00:14:56.041Z,1.65
2023-02-01T00:17:26.539Z,1.75
2023-02-01T00:19:56.688Z,1.73
2023-02-01T00:22:26.806Z,1.69
2023-02-01T00:24:57.012Z,1.64
2023-02-01T00:27:27.151Z,1.52
2023-02-01T00:29:57.390Z,1.46
2023-02-01T00:32:27.472Z,1.59
2023-02-01T00:34:57.635Z,1.63
2023-02-01T00:37:27.779Z,1.62
2023-02-01T00:39:58.207Z,1.63
2023-02-01T00:42:28.402Z,1.58
2023-02-01T00:44:58.505Z,1.59
2023-02-01T00:47:28.638Z,1.54
2023-02-01T00:49:58.751Z,1.60
2023-02-01T00:52:28.875Z,1.64
2023-02-01T00:54:59.019Z,1.60
2023-02-01T00:57:29.155Z,1.57
2023-02-01T00:59:59.311Z,1.57
2023-02-01T01:02:29.633Z,1.55
2023-02-01T01:04:59.679Z,1.53
2023-02-01T01:07:29.885Z,1.53
2023-02-01T01:10:00.114Z,1.47
2023-02-01T01:12:30.194Z,1.45
2023-02-01T01:15:00.417Z,1.42
2023-02-01T01:17:32.879Z,1.43
2023-02-01T01:20:04.959Z,1.40
2023-02-01T01:22:49.178Z,1.40
2023-02-01T01:25:28.697Z,1.40
2023-02-01T01:27:59.447Z,1.41
2023-02-01T01:30:29.682Z,1.38
2023-02-01T01:32:59.829Z,1.32
2023-02-01T01:35:45.106Z,1.30
2023-02-01T01:38:15.280Z,1.29
2023-02-01T01:40:54.318Z,1.29
2023-02-01T01:43:24.456Z,1.25
2023-02-01T01:45:54.596Z,1.19
2023-02-01T01:48:32.044Z,1.16
2023-02-01T01:51:08.016Z,1.11
2023-02-01T01:53:48.171Z,1.11
2023-02-01T01:56:21.437Z,1.09
2023-02-01T01:58:55.145Z,1.10
2023-02-01T02:01:31.818Z,1.11
2023-02-01T02:04:04.636Z,1.10
2023-02-01T02:06:59.553Z,1.10
2023-02-01T02:09:29.742Z,1.07
2023-02-01T02:12:13.741Z,1.08
2023-02-01T02:14:48.058Z,1.04
2023-02-01T02:17:27.492Z,1.05
2023-02-01T02:20:00.221Z,0.99
2023-02-01T02:23:04.875Z,1.01
2023-02-01T02:25:59.484Z,1.03
2023-02-01T02:28:48.259Z,1.06
2023-02-01T02:31:48.229Z,1.05
2023-02-01T02:34:27.102Z,1.01
2023-02-01T02:37:19.337Z,0.99
2023-02-01T02:43:41.440Z,1.11
2023-02-01T02:47:02.288Z,1.15
2023-02-01T02:50:18.166Z,1.17
2023-02-01T02:53:38.179Z,1.05
2023-02-01T02:56:42.481Z,1.13
2023-02-01T02:59:44.646Z,1.12
2023-02-01T03:02:53.180Z,1.11
2023-02-01T03:05:38.980Z,1.08
2023-02-01T03:08:40.688Z,1.08
2023-02-01T03:11:24.794Z,1.09
2023-02-01T03:14:07.826Z,1.09
2023-02-01T03:17:21.348Z,1.09
2023-02-01T03:20:14.606Z,1.09
2023-02-01T03:22:57.208Z,1.09
2023-02-01T03:25:51.615Z,1.04
2023-02-01T03:28:25.728Z,1.00
2023-02-01T03:34:02.179Z,1.02
2023-02-01T03:37:06.480Z,1.02
2023-02-01T03:40:00.234Z,0.97
2023-02-01T03:42:47.490Z,0.96
2023-02-01T03:46:00.664Z,0.89
2023-02-01T03:48:39.661Z,0.89
2023-02-01T03:51:17.937Z,0.93
2023-02-01T03:53:58.953Z,0.92
2023-02-01T03:56:41.782Z,0.97
2023-02-01T03:59:20.358Z,0.90
2023-02-01T04:01:59.641Z,0.90
2023-02-01T04:04:29.843Z,0.85
2023-02-01T04:07:07.765Z,0.86
2023-02-01T04:09:37.981Z,0.93
2023-02-01T04:15:13.843Z,0.97
2023-02-01T04:18:25.184Z,1.00
2023-02-01T04:20:55.485Z,1.07
2023-02-01T04:23:28.853Z,1.11
2023-02-01T04:26:08.262Z,1.10
2023-02-01T04:28:54.723Z,1.07
2023-02-01T04:31:36.922Z,1.11
2023-02-01T04:34:12.829Z,1.07
2023-02-01T04:36:52.956Z,1.10
2023-02-01T04:39:23.191Z,0.99
2023-02-01T04:42:04.958Z,0.99
2023-02-01T04:44:40.607Z,1.01
2023-02-01T04:47:17.917Z,1.02
2023-02-01T04:49:59.380Z,1.02
2023-02-01T04:52:29.530Z,1.03
2023-02-01T04:55:09.349Z,1.05
2023-02-01T04:57:42.556Z,1.03
2023-02-01T05:00:19.001Z,0.94
2023-02-01T05:02:49.344Z,1.04
2023-02-01T05:05:47.276Z,0.99
2023-02-01T05:11:54.128Z,0.89
2023-02-01T05:14:29.894Z,0.88
2023-02-01T05:17:00.041Z,0.88
2023-02-01T05:19:39.809Z,0.91
2023-02-01T05:22:09.859Z,0.89
2023-02-01T05:24:44.235Z,0.90
2023-02-01T05:30:18.383Z,0.92
2023-02-01T05:32:56.985Z,0.98
2023-02-01T05:35:32.856Z,0.96
2023-02-01T05:38:23.457Z,0.91
2023-02-01T05:41:04.043Z,0.96
2023-02-01T05:43:34.180Z,0.95
2023-02-01T05:46:05.655Z,0.96
2023-02-01T05:48:36.630Z,0.95
2023-02-01T05:51:08.853Z,1.01
2023-02-01T05:56:37.710Z,0.98
2023-02-01T05:59:13.461Z,0.99
2023-02-01T06:01:43.669Z,1.01
2023-02-01T06:04:25.701Z,0.93
2023-02-01T06:07:04.286Z,0.92
2023-02-01T06:09:48.287Z,0.89
2023-02-01T06:12:30.686Z,0.79
2023-02-01T06:15:10.142Z,0.78
2023-02-01T06:17:46.044Z,0.79
2023-02-01T06:20:20.485Z,0.76
2023-02-01T06:23:10.987Z,0.79
2023-02-01T06:25:49.878Z,0.73
2023-02-01T06:28:22.886Z,0.77
2023-02-01T06:31:26.928Z,0.79
2023-02-01T06:33:57.713Z,0.78
2023-02-01T06:36:27.814Z,0.78
2023-02-01T06:38:57.969Z,0.84
2023-02-01T06:41:29.560Z,0.85
2023-02-01T06:43:59.954Z,0.85
2023-02-01T06:46:30.218Z,0.87
2023-02-01T06:49:00.525Z,0.88
2023-02-01T06:51:31.340Z,0.88
2023-02-01T06:54:02.258Z,0.90
2023-02-01T06:56:32.663Z,0.82
2023-02-01T06:59:05.517Z,0.89
2023-02-01T07:01:35.870Z,0.87
2023-02-01T07:04:06.411Z,0.91
2023-02-01T07:06:36.673Z,0.92
2023-02-01T07:09:07.864Z,0.95
2023-02-01T07:11:40.479Z,0.91
2023-02-01T07:14:13.056Z,0.96
2023-02-01T07:16:43.387Z,0.96
2023-02-01T07:19:13.551Z,0.96
2023-02-01T07:21:43.920Z,0.95
2023-02-01T07:24:15.732Z,0.99
2023-02-01T07:26:46.054Z,0.97
2023-02-01T07:29:16.310Z,1.09
2023-02-01T07:31:46.518Z,1.12
2023-02-01T07:34:16.859Z,1.08
2023-02-01T07:36:46.992Z,1.08
2023-02-01T07:39:17.137Z,1.07
2023-02-01T07:41:47.398Z,1.09
2023-02-01T07:44:20.244Z,1.09
2023-02-01T07:46:51.256Z,1.13
2023-02-01T07:49:21.470Z,1.20
2023-02-01T07:51:52.022Z,1.20
2023-02-01T07:54:22.131Z,1.25
2023-02-01T07:56:52.303Z,1.27
2023-02-01T07:59:22.538Z,1.28
2023-02-01T08:01:52.703Z,1.23
2023-02-01T08:04:22.882Z,1.25
2023-02-01T08:06:53.141Z,1.25
2023-02-01T08:09:23.374Z,1.26
2023-02-01T08:11:53.685Z,1.29
2023-02-01T08:14:23.797Z,1.38
2023-02-01T08:16:54.183Z,1.40
2023-02-01T08:19:24.267Z,1.41
2023-02-01T08:21:54.450Z,1.42
2023-02-01T08:24:24.576Z,1.46
2023-02-01T08:26:54.879Z,1.53
2023-02-01T08:29:25.051Z,1.61
2023-02-01T08:31:55.711Z,1.64
2023-02-01T08:34:25.938Z,1.71
2023-02-01T08:36:59.704Z,1.77
2023-02-01T08:39:32.527Z,1.86
2023-02-01T08:42:21.476Z,1.86
2023-02-01T08:45:02.082Z,1.91
2023-02-01T08:47:36.457Z,1.96
2023-02-01T08:50:13.211Z,1.97
2023-02-01T08:52:43.442Z,2.02
2023-02-01T08:55:15.060Z,2.07
2023-02-01T08:57:45.490Z,2.14
2023-02-01T09:00:18.246Z,2.20
2023-02-01T09:03:16.151Z,2.25
2023-02-01T09:05:49.862Z,2.33
2023-02-01T09:08:23.406Z,2.48
2023-02-01T09:10:53.582Z,2.64
2023-02-01T09:13:29.379Z,2.71
2023-02-01T09:16:06.115Z,2.76
2023-02-01T09:18:50.891Z,2.82
2023-02-01T09:24:24.973Z,2.86
2023-02-01T09:26:58.975Z,2.85
2023-02-01T09:29:30.680Z,2.83
2023-02-01T09:32:19.100Z,2.83
2023-02-01T09:34:50.793Z,2.82
2023-02-01T09:37:34.069Z,2.73
2023-02-01T09:40:14.051Z,2.73
2023-02-01T09:43:24.564Z,2.73
2023-02-01T09:46:18.660Z,2.71
2023-02-01T09:48:53.903Z,2.63
2023-02-01T09:51:34.839Z,2.68
2023-02-01T09:54:12.457Z,2.61
2023-02-01T09:56:53.684Z,2.67
2023-02-01T09:59:44.782Z,2.69
2023-02-01T10:02:20.409Z,2.65
2023-02-01T10:05:06.155Z,2.61
2023-02-01T10:07:44.637Z,2.64
2023-02-01T10:10:40.565Z,2.68
2023-02-01T10:13:35.025Z,2.69
2023-02-01T10:16:37.472Z,2.69
2023-02-01T10:19:23.695Z,2.71
2023-02-01T10:22:03.855Z,2.71
2023-02-01T10:24:36.946Z,2.74
2023-02-01T10:27:15.034Z,2.74
2023-02-01T10:29:50.289Z,2.74
2023-02-01T10:32:29.955Z,2.75
2023-02-01T10:35:14.302Z,2.77
2023-02-01T10:37:46.612Z,2.82
2023-02-01T10:40:43.547Z,2.84
2023-02-01T10:43:19.544Z,2.88
2023-02-01T10:46:07.409Z,2.91
2023-02-01T10:49:08.709Z,2.95
2023-02-01T10:52:27.690Z,2.97
2023-02-01T10:55:35.719Z,3.06
2023-02-01T10:58:45.265Z,3.11
2023-02-01T11:02:04.818Z,3.22
2023-02-01T11:04:39.211Z,3.32
2023-02-01T11:07:24.910Z,3.39
2023-02-01T11:09:57.563Z,3.38
2023-02-01T11:12:37.462Z,3.43
2023-02-01T11:15:19.923Z,3.53
2023-02-01T11:17:57.546Z,3.58
2023-02-01T11:20:33.432Z,3.56
2023-02-01T11:23:03.946Z,3.51
2023-02-01T11:25:37.644Z,3.50
2023-02-01T11:28:09.726Z,3.90
2023-02-01T11:30:45.275Z,4.24
2023-02-01T11:33:19.877Z,4.49
2023-02-01T11:35:50.480Z,4.89
2023-02-01T11:38:32.368Z,5.12
2023-02-01T11:41:26.319Z,5.03
2023-02-01T11:43:59.600Z,4.62
2023-02-01T11:46:36.111Z,4.27
2023-02-01T11:49:36.792Z,4.01
2023-02-01T11:52:34.809Z,3.71
2023-02-01T11:55:35.711Z,3.55
2023-02-01T11:58:43.408Z,3.51
2023-02-01T12:01:31.976Z,3.51
2023-02-01T12:04:04.896Z,3.52
2023-02-01T12:06:58.630Z,3.54
2023-02-01T12:09:55.030Z,3.47
2023-02-01T12:12:50.164Z,3.46
2023-02-01T12:15:30.161Z,3.32
2023-02-01T12:18:28.677Z,3.24
2023-02-01T12:21:14.223Z,3.01
2023-02-01T12:24:26.339Z,2.78
2023-02-01T12:26:59.413Z,2.67
2023-02-01T12:29:29.474Z,2.58
2023-02-01T12:32:22.188Z,2.52
2023-02-01T12:35:13.684Z,2.46
2023-02-01T12:38:26.168Z,2.36
2023-02-01T12:41:25.276Z,2.30
2023-02-01T12:44:12.552Z,2.38
2023-02-01T12:46:51.839Z,2.44
2023-02-01T12:49:43.050Z,2.46
2023-02-01T12:52:21.500Z,2.48
2023-02-01T12:55:26.229Z,2.52
2023-02-01T12:58:05.647Z,2.54
2023-02-01T13:00:45.932Z,2.54
2023-02-01T13:03:37.311Z,2.61
2023-02-01T13:06:15.150Z,2.66
2023-02-01T13:08:55.921Z,2.74
2023-02-01T13:11:31.898Z,2.74
2023-02-01T13:14:17.191Z,2.76
2023-02-01T13:16:51.153Z,2.71
2023-02-01T13:19:56.838Z,2.78
2023-02-01T13:22:44.724Z,2.73
2023-02-01T13:25:27.111Z,2.74
2023-02-01T13:28:03.600Z,2.72
2023-02-01T13:31:08.921Z,2.80
2023-02-01T13:33:56.409Z,2.69
2023-02-01T13:37:21.043Z,2.68
2023-02-01T13:40:25.299Z,2.65
2023-02-01T13:42:59.784Z,2.61
2023-02-01T13:45:37.055Z,2.61
2023-02-01T13:48:15.858Z,2.63
2023-02-01T13:50:53.116Z,2.61
2023-02-01T13:53:30.135Z,2.71
2023-02-01T13:56:10.096Z,2.67
2023-02-01T13:58:42.939Z,2.68
2023-02-01T14:01:22.341Z,2.74
2023-02-01T14:04:01.149Z,2.78
2023-02-01T14:06:31.527Z,2.94
2023-02-01T14:09:13.391Z,3.03
2023-02-01T14:12:26.586Z,3.06
2023-02-01T14:15:23.083Z,3.10
2023-02-01T14:17:53.933Z,3.17
2023-02-01T14:20:45.064Z,3.19
2023-02-01T14:23:22.624Z,3.17
2023-02-01T14:26:06.404Z,3.14
2023-02-01T14:28:40.582Z,3.09
2023-02-01T14:31:30.584Z,3.06
2023-02-01T14:34:12.192Z,3.05
2023-02-01T14:37:08.277Z,3.07
2023-02-01T14:40:04.874Z,3.08
2023-02-01T14:42:43.705Z,3.16
2023-02-01T14:45:28.080Z,3.18
2023-02-01T14:48:07.325Z,3.16
2023-02-01T14:50:49.401Z,3.09
2023-02-01T14:53:31.421Z,3.03
2023-02-01T14:56:17.374Z,3.05
2023-02-01T14:58:53.947Z,2.95
2023-02-01T15:01:32.063Z,2.99
2023-02-01T15:04:19.674Z,2.88
2023-02-01T15:07:05.907Z,2.89
2023-02-01T15:09:37.534Z,2.88
2023-02-01T15:12:13.563Z,2.91
2023-02-01T15:14:52.456Z,2.91
2023-02-01T15:17:24.777Z,2.88
2023-02-01T15:20:18.799Z,2.91
2023-02-01T15:23:01.195Z,2.87
2023-02-01T15:25:36.494Z,2.86
2023-02-01T15:28:13.688Z,2.85
2023-02-01T15:31:05.036Z,2.83
2023-02-01T15:33:35.360Z,2.81
2023-02-01T15:36:19.501Z,2.82
2023-02-01T15:38:49.850Z,2.80
2023-02-01T15:41:22.958Z,2.86
2023-02-01T15:43:56.154Z,2.86
2023-02-01T15:46:36.748Z,2.84
2023-02-01T15:49:37.575Z,2.88
2023-02-01T15:52:22.769Z,2.91
2023-02-01T15:55:01.833Z,2.94
2023-02-01T15:57:40.588Z,2.92
2023-02-01T16:00:28.748Z,2.92
2023-02-01T16:03:01.549Z,2.90
2023-02-01T16:05:36.943Z,2.81
2023-02-01T16:08:16.786Z,2.67
2023-02-01T16:10:49.316Z,2.53
2023-02-01T16:13:21.647Z,2.43
2023-02-01T16:15:51.910Z,2.42
2023-02-01T16:18:22.041Z,2.41
2023-02-01T16:20:52.461Z,2.36
2023-02-01T16:23:22.576Z,2.35
2023-02-01T16:25:52.664Z,2.37
2023-02-01T16:28:22.856Z,2.40
2023-02-01T16:30:53.048Z,2.39
2023-02-01T16:33:28.425Z,2.42
2023-02-01T16:36:12.813Z,2.38
2023-02-01T16:38:46.310Z,2.43
2023-02-01T16:41:24.429Z,2.35
2023-02-01T16:43:56.893Z,2.42
2023-02-01T16:46:34.154Z,2.33
2023-02-01T16:49:04.382Z,2.36
2023-02-01T16:51:34.814Z,2.31
2023-02-01T16:54:05.719Z,2.31
2023-02-01T16:56:36.891Z,2.29
2023-02-01T16:59:07.187Z,2.30
2023-02-01T17:01:40.177Z,2.30
2023-02-01T17:04:12.720Z,2.23
2023-02-01T17:06:43.128Z,2.21
2023-02-01T17:09:13.374Z,2.17
2023-02-01T17:11:43.567Z,2.15
2023-02-01T17:14:19.615Z,2.17
2023-02-01T17:16:51.375Z,2.17
2023-02-01T17:19:26.324Z,2.14
2023-02-01T17:22:00.154Z,2.14
2023-02-01T17:24:42.693Z,2.15
2023-02-01T17:27:18.614Z,2.11
2023-02-01T17:29:49.358Z,2.09
2023-02-01T17:32:25.830Z,2.06
2023-02-01T17:34:56.013Z,2.04
2023-02-01T17:37:32.512Z,2.08
2023-02-01T17:40:02.709Z,2.11
2023-02-01T17:42:32.876Z,2.07
2023-02-01T17:45:38.675Z,2.10
2023-02-01T17:48:09.226Z,2.09
2023-02-01T17:50:39.893Z,2.12
2023-02-01T17:53:11.503Z,2.15
2023-02-01T17:55:44.510Z,2.17
2023-02-01T17:58:16.192Z,2.21
2023-02-01T18:00:48.477Z,2.22
2023-02-01T18:03:27.396Z,2.23
2023-02-01T18:05:58.699Z,2.19
2023-02-01T18:08:33.864Z,2.16
2023-02-01T18:11:04.173Z,2.14
2023-02-01T18:13:34.357Z,2.06
2023-02-01T18:16:04.835Z,2.05
2023-02-01T18:18:36.419Z,2.04
2023-02-01T18:21:07.757Z,2.06
2023-02-01T18:23:37.955Z,2.09
2023-02-01T18:26:12.534Z,2.10
2023-02-01T18:28:43.141Z,2.03
2023-02-01T18:31:31.858Z,2.09
2023-02-01T18:34:02.114Z,2.07
2023-02-01T18:36:32.297Z,2.09
2023-02-01T18:39:02.488Z,2.05
2023-02-01T18:41:34.517Z,1.94
2023-02-01T18:44:04.844Z,2.01
2023-02-01T18:46:35.039Z,2.05
2023-02-01T18:49:05.223Z,2.08
2023-02-01T18:51:35.549Z,2.12
2023-02-01T18:54:06.338Z,2.13
2023-02-01T18:56:36.520Z,2.09
2023-02-01T18:59:06.684Z,2.14
2023-02-01T19:01:36.880Z,2.17
2023-02-01T19:04:15.071Z,2.19
2023-02-01T19:06:49.929Z,2.19
2023-02-01T19:09:20.246Z,2.23
2023-02-01T19:11:50.431Z,2.20
2023-02-01T19:14:20.777Z,2.24
2023-02-01T19:16:50.990Z,2.21
2023-02-01T19:19:21.102Z,2.18
2023-02-01T19:21:52.632Z,2.14
2023-02-01T19:24:23.915Z,2.04
2023-02-01T19:26:57.474Z,2.03
2023-02-01T19:29:47.472Z,2.01
2023-02-01T19:32:20.418Z,1.97
2023-02-01T19:34:50.599Z,2.08
2023-02-01T19:37:20.859Z,2.07
2023-02-01T19:39:51.062Z,2.09
2023-02-01T19:42:32.198Z,2.10
2023-02-01T19:45:14.680Z,2.07
2023-02-01T19:47:45.006Z,2.04
2023-02-01T19:50:24.238Z,2.02
2023-02-01T19:52:54.507Z,2.03
2023-02-01T19:55:24.924Z,2.07
2023-02-01T19:57:58.455Z,2.08
2023-02-01T20:00:28.018Z,2.06
2023-02-01T20:03:01.219Z,2.09
2023-02-01T20:05:31.464Z,2.09
2023-02-01T20:08:02.252Z,2.15
2023-02-01T20:10:34.012Z,2.09
2023-02-01T20:13:04.696Z,2.14
2023-02-01T20:15:35.518Z,2.13
2023-02-01T20:18:06.102Z,2.12
2023-02-01T20:20:40.399Z,2.17
2023-02-01T20:23:11.179Z,2.14
2023-02-01T20:25:42.805Z,2.19
2023-02-01T20:28:13.166Z,2.16
2023-02-01T20:30:47.413Z,2.21
2023-02-01T20:33:17.839Z,2.19
2023-02-01T20:35:48.432Z,2.17
2023-02-01T20:38:18.777Z,2.22
2023-02-01T20:40:49.210Z,2.26
2023-02-01T20:43:19.556Z,2.23
2023-02-01T20:45:50.533Z,2.26
2023-02-01T20:48:20.652Z,2.24
2023-02-01T20:50:59.028Z,2.28
2023-02-01T20:53:30.762Z,2.29
2023-02-01T20:56:01.138Z,2.28
2023-02-01T20:58:31.750Z,2.25
2023-02-01T21:01:02.025Z,2.06
2023-02-01T21:03:32.535Z,2.09
2023-02-01T21:06:05.317Z,2.04
2023-02-01T21:08:35.523Z,1.96
2023-02-01T21:11:11.508Z,1.94
2023-02-01T21:13:50.833Z,2.00
2023-02-01T21:16:22.713Z,2.01
2023-02-01T21:18:56.235Z,2.01
2023-02-01T21:21:26.691Z,2.04
2023-02-01T21:23:57.641Z,2.05
2023-02-01T21:26:29.023Z,1.94
2023-02-01T21:28:59.107Z,1.96
2023-02-01T21:31:29.231Z,1.96
2023-02-01T21:33:59.487Z,1.95
2023-02-01T21:36:34.953Z,2.00
2023-02-01T21:39:11.021Z,1.98
2023-02-01T21:41:59.960Z,1.93
2023-02-01T21:44:30.438Z,2.03
2023-02-01T21:47:01.611Z,2.04
2023-02-01T21:49:31.965Z,2.09
2023-02-01T21:52:02.595Z,2.09
2023-02-01T21:54:32.819Z,2.05
2023-02-01T21:57:03.060Z,2.03
2023-02-01T21:59:33.311Z,2.03
2023-02-01T22:02:04.966Z,2.02
2023-02-01T22:04:37.043Z,1.96
2023-02-01T22:07:07.703Z,1.95
2023-02-01T22:09:38.684Z,1.98
2023-02-01T22:12:12.693Z,1.97
2023-02-01T22:14:52.604Z,1.89
2023-02-01T22:17:22.801Z,1.85
2023-02-01T22:19:58.485Z,1.91
2023-02-01T22:22:29.165Z,1.92
2023-02-01T22:25:02.244Z,1.87
2023-02-01T22:28:30.537Z,1.88
2023-02-01T22:30:23.288Z,1.84
2023-02-01T22:32:53.633Z,1.80
2023-02-01T22:35:24.014Z,1.75
2023-02-01T22:37:54.345Z,1.67
2023-02-01T22:40:24.675Z,1.64
2023-02-01T22:42:54.835Z,1.63
2023-02-01T22:45:25.271Z,1.70
2023-02-01T22:47:55.570Z,1.69
2023-02-01T22:50:25.731Z,1.74
2023-02-01T22:52:55.886Z,1.72
2023-02-01T22:55:26.336Z,1.72
2023-02-01T22:57:56.736Z,1.74
2023-02-01T23:00:27.720Z,1.73
2023-02-01T23:02:57.799Z,1.76
2023-02-01T23:05:27.939Z,1.83
2023-02-01T23:07:58.060Z,1.85
2023-02-01T23:10:28.206Z,1.88
2023-02-01T23:12:58.293Z,1.85
2023-02-01T23:15:28.492Z,1.78
2023-02-01T23:17:58.595Z,1.78
2023-02-01T23:20:29.029Z,1.80
2023-02-01T23:22:59.195Z,1.85
2023-02-01T23:25:29.324Z,1.88
2023-02-01T23:27:59.424Z,1.86
2023-02-01T23:30:29.493Z,1.81
2023-02-01T23:32:59.943Z,1.82
2023-02-01T23:35:30.156Z,1.80
2023-02-01T23:38:00.336Z,1.80
2023-02-01T23:40:30.408Z,1.72
2023-02-01T23:43:19.096Z,1.73
2023-02-01T23:45:49.193Z,1.75
2023-02-01T23:48:21.483Z,1.77
2023-02-01T23:50:52.709Z,1.75
2023-02-01T23:53:26.952Z,1.70
2023-02-01T23:55:57.211Z,1.73
2023-02-01T23:58:27.521Z,1.74
